Shibin el-Kom, Egypt

61°F / 16°C
Clear
Humidity: 45%
Dew Point: 39°F / 4°C
Wind: North at 5 mph / 7 km/h
Pressure: 30.18 in / 1022 hPa (Rising)
Visibility: 3.7 miles / 6.0 kilometers
Clouds:
Yesterday's Maximum: 66°F / 19°C
Yesterday's Minimum: 50°F / 10°C approx.
Yesterday's Heating Degree Days: 7 approx.
Sunrise:6:32 AM EET
Sunset:5:48 PM EET
Moon Rise:6:51 PM EET
Moon Set:7:12 AM EET
Moon Phase Full Moon
NOAA Weather Radio
No local feed.
METAR HECA 201900Z 36004KT 6000 NSC 16/04 Q1022 NOSIG
As of: 9:00 PM EET on February 20, 2019
Observed at: Cairo, Egypt

View Station's History

Local Satellite

Current Satellite Forecast
Region Default Local
No Yes

View Full Screen WunderMap

Forecast

Current Satellite Forecast

Features

Weather Apps

WunderRadio

Weather Underground Apps
Check out our wide variety of mobile and setup applications.

Weather Underground Applications

Top of Page

© Copyright 2019
The Weather Company, LLC